Palm Springs North, Florida
Current Conditions -  °F | °C
As of 1:53 AM on Thursday 27 Nov 2014 (Local Time) from KMIA Reporting Station
Scattered Clouds Scattered Clouds  
Wind Chill: 14°   Ceiling: Unl
Heat Index: 14°   Visibility: 10mi
Dew Point:   Wind: 8mph
Humidity: 62%   Direction: 320°NW
Pressure: 30.18"   Gusts: NA
Location:  25.9357°N, 80.3817°W
Report Text: KMIA 270653Z 32007KT 10SM SCT250 14/07 A3018 RMK AO2 SLP220 T01440072 VISNO RWY 9L $
Loading
Personal Weather Stations






























Interactive Weather Map New forecast layout! Learn more

10-Day Weather Forecast

Advertisements
Track Severe Weather on mobile